sensor_id;sensor_type;location;lat;lon;timestamp;P1;durP1;ratioP1;P2;durP2;ratioP2
20203;SDS011;10261;49.010;12.034;2023-04-24T00:00:14;12.52;;;3.13;;
20203;SDS011;10261;49.010;12.034;2023-04-24T00:01:18;2.85;;;2.00;;
20203;SDS011;10261;49.010;12.034;2023-04-24T00:02:21;2.63;;;2.13;;
20203;SDS011;10261;49.010;12.034;2023-04-24T00:03:24;2.40;;;1.60;;
20203;SDS011;10261;49.010;12.034;2023-04-24T00:04:28;2.88;;;2.13;;
20203;SDS011;10261;49.010;12.034;2023-04-24T00:05:33;2.83;;;2.30;;
20203;SDS011;10261;49.010;12.034;2023-04-24T00:06:35;1.80;;;1.70;;
20203;SDS011;10261;49.010;12.034;2023-04-24T00:07:40;3.92;;;1.50;;
20203;SDS011;10261;49.010;12.034;2023-04-24T00:08:42;3.58;;;2.10;;
20203;SDS011;10261;49.010;12.034;2023-04-24T00:09:45;2.03;;;1.83;;
20203;SDS011;10261;49.010;12.034;2023-04-24T00:10:47;4.93;;;1.83;;
20203;SDS011;10261;49.010;12.034;2023-04-24T00:11:50;3.17;;;2.30;;
20203;SDS011;10261;49.010;12.034;2023-04-24T00:12:52;2.90;;;1.83;;
20203;SDS011;10261;49.010;12.034;2023-04-24T00:13:55;2.15;;;1.70;;
20203;SDS011;10261;49.010;12.034;2023-04-24T00:14:57;2.85;;;1.95;;
20203;SDS011;10261;49.010;12.034;2023-04-24T00:16:00;2.95;;;2.50;;
20203;SDS011;10261;49.010;12.034;2023-04-24T00:17:02;2.78;;;1.77;;
20203;SDS011;10261;49.010;12.034;2023-04-24T00:18:05;4.80;;;2.08;;
20203;SDS011;10261;49.010;12.034;2023-04-24T00:19:08;2.47;;;2.28;;
20203;SDS011;10261;49.010;12.034;2023-04-24T00:20:13;7.22;;;2.50;;
20203;SDS011;10261;49.010;12.034;2023-04-24T00:21:16;2.45;;;1.85;;
20203;SDS011;10261;49.010;12.034;2023-04-24T00:22:19;2.00;;;1.70;;
20203;SDS011;10261;49.010;12.034;2023-04-24T00:23:23;2.70;;;2.10;;
20203;SDS011;10261;49.010;12.034;2023-04-24T00:24:26;4.57;;;2.20;;
20203;SDS011;10261;49.010;12.034;2023-04-24T00:25:28;6.60;;;2.10;;
20203;SDS011;10261;49.010;12.034;2023-04-24T00:26:31;6.70;;;2.28;;
20203;SDS011;10261;49.010;12.034;2023-04-24T00:27:33;3.47;;;1.77;;
20203;SDS011;10261;49.010;12.034;2023-04-24T00:28:38;4.28;;;3.13;;
20203;SDS011;10261;49.010;12.034;2023-04-24T00:29:40;2.40;;;2.17;;
20203;SDS011;10261;49.010;12.034;2023-04-24T00:30:43;3.05;;;2.13;;
20203;SDS011;10261;49.010;12.034;2023-04-24T00:31:45;3.05;;;2.58;;
20203;SDS011;10261;49.010;12.034;2023-04-24T00:32:48;11.93;;;1.90;;
20203;SDS011;10261;49.010;12.034;2023-04-24T00:33:50;2.70;;;2.25;;
20203;SDS011;10261;49.010;12.034;2023-04-24T00:34:53;3.53;;;2.08;;
20203;SDS011;10261;49.010;12.034;2023-04-24T00:35:55;5.88;;;2.30;;
20203;SDS011;10261;49.010;12.034;2023-04-24T00:36:58;2.97;;;2.10;;
20203;SDS011;10261;49.010;12.034;2023-04-24T00:38:00;2.85;;;2.00;;
20203;SDS011;10261;49.010;12.034;2023-04-24T00:39:05;3.45;;;1.83;;
20203;SDS011;10261;49.010;12.034;2023-04-24T00:40:10;5.07;;;2.15;;
20203;SDS011;10261;49.010;12.034;2023-04-24T00:41:13;3.05;;;2.53;;
20203;SDS011;10261;49.010;12.034;2023-04-24T00:42:15;4.05;;;2.80;;
20203;SDS011;10261;49.010;12.034;2023-04-24T00:43:18;6.75;;;2.75;;
20203;SDS011;10261;49.010;12.034;2023-04-24T00:44:20;2.35;;;2.15;;
20203;SDS011;10261;49.010;12.034;2023-04-24T00:45:24;3.60;;;2.63;;
20203;SDS011;10261;49.010;12.034;2023-04-24T00:46:26;2.70;;;2.50;;
20203;SDS011;10261;49.010;12.034;2023-04-24T00:47:29;4.22;;;2.58;;
20203;SDS011;10261;49.010;12.034;2023-04-24T00:48:31;2.60;;;2.25;;
20203;SDS011;10261;49.010;12.034;2023-04-24T00:49:34;4.93;;;2.17;;
20203;SDS011;10261;49.010;12.034;2023-04-24T00:50:37;3.10;;;2.20;;
20203;SDS011;10261;49.010;12.034;2023-04-24T00:51:41;3.70;;;2.80;;
20203;SDS011;10261;49.010;12.034;2023-04-24T00:52:46;3.45;;;2.38;;
20203;SDS011;10261;49.010;12.034;2023-04-24T00:53:49;3.47;;;2.10;;
20203;SDS011;10261;49.010;12.034;2023-04-24T00:54:53;6.25;;;3.05;;
20203;SDS011;10261;49.010;12.034;2023-04-24T00:55:56;3.85;;;2.55;;
20203;SDS011;10261;49.010;12.034;2023-04-24T00:56:59;3.42;;;3.13;;
20203;SDS011;10261;49.010;12.034;2023-04-24T00:58:02;2.67;;;2.47;;
20203;SDS011;10261;49.010;12.034;2023-04-24T00:59:04;3.90;;;2.35;;
20203;SDS011;10261;49.010;12.034;2023-04-24T01:00:07;4.35;;;2.50;;
20203;SDS011;10261;49.010;12.034;2023-04-24T01:01:11;5.05;;;2.75;;
20203;SDS011;10261;49.010;12.034;2023-04-24T01:02:15;3.63;;;3.03;;
20203;SDS011;10261;49.010;12.034;2023-04-24T01:03:17;3.70;;;2.70;;
20203;SDS011;10261;49.010;12.034;2023-04-24T01:04:22;4.95;;;3.38;;
20203;SDS011;10261;49.010;12.034;2023-04-24T01:05:24;2.72;;;2.53;;
20203;SDS011;10261;49.010;12.034;2023-04-24T01:06:29;3.22;;;2.92;;
20203;SDS011;10261;49.010;12.034;2023-04-24T01:07:32;2.92;;;2.60;;
20203;SDS011;10261;49.010;12.034;2023-04-24T01:08:35;3.55;;;2.35;;
20203;SDS011;10261;49.010;12.034;2023-04-24T01:09:38;3.45;;;2.78;;
20203;SDS011;10261;49.010;12.034;2023-04-24T01:10:44;3.35;;;2.45;;
20203;SDS011;10261;49.010;12.034;2023-04-24T01:11:47;4.78;;;3.20;;
20203;SDS011;10261;49.010;12.034;2023-04-24T01:12:51;4.20;;;2.80;;
20203;SDS011;10261;49.010;12.034;2023-04-24T01:13:54;6.25;;;3.10;;
20203;SDS011;10261;49.010;12.034;2023-04-24T01:14:57;3.28;;;2.95;;
20203;SDS011;10261;49.010;12.034;2023-04-24T01:16:00;3.30;;;3.00;;
20203;SDS011;10261;49.010;12.034;2023-04-24T01:17:03;3.10;;;2.70;;
20203;SDS011;10261;49.010;12.034;2023-04-24T01:18:05;2.65;;;2.45;;
20203;SDS011;10261;49.010;12.034;2023-04-24T01:19:08;3.05;;;2.78;;
20203;SDS011;10261;49.010;12.034;2023-04-24T01:20:12;3.15;;;2.85;;
20203;SDS011;10261;49.010;12.034;2023-04-24T01:21:16;5.78;;;3.35;;
20203;SDS011;10261;49.010;12.034;2023-04-24T01:22:23;5.68;;;2.60;;
20203;SDS011;10261;49.010;12.034;2023-04-24T01:23:26;3.33;;;2.97;;
20203;SDS011;10261;49.010;12.034;2023-04-24T01:24:29;4.30;;;2.65;;
20203;SDS011;10261;49.010;12.034;2023-04-24T01:25:32;4.13;;;2.95;;
20203;SDS011;10261;49.010;12.034;2023-04-24T01:26:34;4.20;;;2.92;;
20203;SDS011;10261;49.010;12.034;2023-04-24T01:27:37;3.28;;;2.35;;
20203;SDS011;10261;49.010;12.034;2023-04-24T01:28:39;4.15;;;2.78;;
20203;SDS011;10261;49.010;12.034;2023-04-24T01:29:43;5.07;;;3.00;;
20203;SDS011;10261;49.010;12.034;2023-04-24T01:30:45;4.18;;;3.78;;
20203;SDS011;10261;49.010;12.034;2023-04-24T01:31:48;6.40;;;3.10;;
20203;SDS011;10261;49.010;12.034;2023-04-24T01:32:51;3.30;;;3.00;;
20203;SDS011;10261;49.010;12.034;2023-04-24T01:33:54;3.00;;;2.70;;
20203;SDS011;10261;49.010;12.034;2023-04-24T01:34:57;3.70;;;3.40;;
20203;SDS011;10261;49.010;12.034;2023-04-24T01:36:00;3.45;;;3.13;;
20203;SDS011;10261;49.010;12.034;2023-04-24T01:37:03;5.35;;;4.07;;
20203;SDS011;10261;49.010;12.034;2023-04-24T01:38:07;4.65;;;3.40;;
20203;SDS011;10261;49.010;12.034;2023-04-24T01:39:09;3.10;;;2.90;;
20203;SDS011;10261;49.010;12.034;2023-04-24T01:40:12;3.25;;;2.95;;
20203;SDS011;10261;49.010;12.034;2023-04-24T01:41:14;5.28;;;2.95;;
20203;SDS011;10261;49.010;12.034;2023-04-24T01:42:18;5.50;;;3.45;;
20203;SDS011;10261;49.010;12.034;2023-04-24T01:43:20;3.65;;;3.35;;
20203;SDS011;10261;49.010;12.034;2023-04-24T01:44:23;3.88;;;3.58;;
20203;SDS011;10261;49.010;12.034;2023-04-24T01:45:25;4.05;;;3.65;;
20203;SDS011;10261;49.010;12.034;2023-04-24T01:46:29;3.88;;;3.50;;
20203;SDS011;10261;49.010;12.034;2023-04-24T01:47:31;5.30;;;4.80;;
20203;SDS011;10261;49.010;12.034;2023-04-24T01:48:35;4.97;;;3.80;;
20203;SDS011;10261;49.010;12.034;2023-04-24T01:49:38;4.65;;;4.28;;
20203;SDS011;10261;49.010;12.034;2023-04-24T01:50:41;7.50;;;5.18;;
20203;SDS011;10261;49.010;12.034;2023-04-24T01:51:44;6.60;;;5.38;;
20203;SDS011;10261;49.010;12.034;2023-04-24T01:52:47;6.30;;;5.15;;
20203;SDS011;10261;49.010;12.034;2023-04-24T01:53:51;8.75;;;5.45;;
20203;SDS011;10261;49.010;12.034;2023-04-24T01:54:54;7.90;;;4.70;;
20203;SDS011;10261;49.010;12.034;2023-04-24T01:55:57;6.78;;;4.65;;
20203;SDS011;10261;49.010;12.034;2023-04-24T01:56:59;6.45;;;5.03;;
20203;SDS011;10261;49.010;12.034;2023-04-24T01:58:03;6.53;;;5.10;;
20203;SDS011;10261;49.010;12.034;2023-04-24T01:59:05;6.40;;;5.57;;
20203;SDS011;10261;49.010;12.034;2023-04-24T02:00:09;6.35;;;5.35;;
20203;SDS011;10261;49.010;12.034;2023-04-24T02:01:14;5.65;;;5.05;;
20203;SDS011;10261;49.010;12.034;2023-04-24T02:02:20;7.90;;;6.32;;
20203;SDS011;10261;49.010;12.034;2023-04-24T02:03:24;9.27;;;6.05;;
20203;SDS011;10261;49.010;12.034;2023-04-24T02:04:28;7.30;;;6.25;;
20203;SDS011;10261;49.010;12.034;2023-04-24T02:05:30;15.00;;;6.20;;
20203;SDS011;10261;49.010;12.034;2023-04-24T02:06:33;6.47;;;5.78;;
20203;SDS011;10261;49.010;12.034;2023-04-24T02:07:35;6.63;;;5.40;;
20203;SDS011;10261;49.010;12.034;2023-04-24T02:08:38;6.63;;;5.40;;
20203;SDS011;10261;49.010;12.034;2023-04-24T02:09:42;7.22;;;5.65;;
20203;SDS011;10261;49.010;12.034;2023-04-24T02:10:45;8.10;;;6.20;;
20203;SDS011;10261;49.010;12.034;2023-04-24T02:11:47;6.65;;;5.55;;
20203;SDS011;10261;49.010;12.034;2023-04-24T02:12:50;5.90;;;5.35;;
20203;SDS011;10261;49.010;12.034;2023-04-24T02:13:52;5.75;;;5.22;;
20203;SDS011;10261;49.010;12.034;2023-04-24T02:14:55;8.13;;;5.57;;
20203;SDS011;10261;49.010;12.034;2023-04-24T02:15:57;7.97;;;5.75;;
20203;SDS011;10261;49.010;12.034;2023-04-24T02:17:00;6.35;;;5.43;;
20203;SDS011;10261;49.010;12.034;2023-04-24T02:18:02;9.77;;;5.47;;
20203;SDS011;10261;49.010;12.034;2023-04-24T02:19:05;6.10;;;5.03;;
20203;SDS011;10261;49.010;12.034;2023-04-24T02:20:07;6.78;;;5.40;;
20203;SDS011;10261;49.010;12.034;2023-04-24T02:21:10;8.75;;;5.93;;
20203;SDS011;10261;49.010;12.034;2023-04-24T02:22:13;7.53;;;6.30;;
20203;SDS011;10261;49.010;12.034;2023-04-24T02:23:16;5.97;;;5.43;;
20203;SDS011;10261;49.010;12.034;2023-04-24T02:24:18;6.22;;;5.38;;
20203;SDS011;10261;49.010;12.034;2023-04-24T02:25:22;6.22;;;5.65;;
20203;SDS011;10261;49.010;12.034;2023-04-24T02:26:25;8.32;;;5.78;;
20203;SDS011;10261;49.010;12.034;2023-04-24T02:27:28;5.80;;;5.28;;
20203;SDS011;10261;49.010;12.034;2023-04-24T02:28:30;7.80;;;5.32;;
20203;SDS011;10261;49.010;12.034;2023-04-24T02:29:33;6.35;;;4.72;;
20203;SDS011;10261;49.010;12.034;2023-04-24T02:30:35;5.53;;;5.03;;
20203;SDS011;10261;49.010;12.034;2023-04-24T02:31:38;6.95;;;5.90;;
20203;SDS011;10261;49.010;12.034;2023-04-24T02:32:41;7.18;;;6.30;;
20203;SDS011;10261;49.010;12.034;2023-04-24T02:33:43;8.07;;;7.20;;
20203;SDS011;10261;49.010;12.034;2023-04-24T02:34:46;5.85;;;5.22;;
20203;SDS011;10261;49.010;12.034;2023-04-24T02:35:48;8.13;;;6.50;;
20203;SDS011;10261;49.010;12.034;2023-04-24T02:36:51;7.40;;;6.70;;
20203;SDS011;10261;49.010;12.034;2023-04-24T02:37:55;6.70;;;6.00;;
20203;SDS011;10261;49.010;12.034;2023-04-24T02:38:58;6.43;;;5.22;;
20203;SDS011;10261;49.010;12.034;2023-04-24T02:39:59;6.47;;;5.88;;
20203;SDS011;10261;49.010;12.034;2023-04-24T02:41:04;6.30;;;5.68;;
20203;SDS011;10261;49.010;12.034;2023-04-24T02:42:07;6.85;;;5.60;;
20203;SDS011;10261;49.010;12.034;2023-04-24T02:43:10;7.18;;;5.10;;
20203;SDS011;10261;49.010;12.034;2023-04-24T02:44:12;5.30;;;4.80;;
20203;SDS011;10261;49.010;12.034;2023-04-24T02:45:15;6.00;;;4.90;;
20203;SDS011;10261;49.010;12.034;2023-04-24T02:46:18;6.55;;;5.85;;
20203;SDS011;10261;49.010;12.034;2023-04-24T02:47:21;5.18;;;4.78;;
20203;SDS011;10261;49.010;12.034;2023-04-24T02:48:23;6.45;;;5.18;;
20203;SDS011;10261;49.010;12.034;2023-04-24T02:49:26;6.07;;;5.25;;
20203;SDS011;10261;49.010;12.034;2023-04-24T02:50:28;5.30;;;4.80;;
20203;SDS011;10261;49.010;12.034;2023-04-24T02:51:31;9.40;;;5.53;;
20203;SDS011;10261;49.010;12.034;2023-04-24T02:52:33;5.28;;;4.88;;
20203;SDS011;10261;49.010;12.034;2023-04-24T02:53:36;6.00;;;5.22;;
20203;SDS011;10261;49.010;12.034;2023-04-24T02:54:38;4.93;;;4.53;;
20203;SDS011;10261;49.010;12.034;2023-04-24T02:55:41;5.07;;;4.68;;
20203;SDS011;10261;49.010;12.034;2023-04-24T02:56:44;5.18;;;4.60;;
20203;SDS011;10261;49.010;12.034;2023-04-24T02:57:47;5.40;;;4.85;;
20203;SDS011;10261;49.010;12.034;2023-04-24T02:58:49;5.80;;;4.75;;
20203;SDS011;10261;49.010;12.034;2023-04-24T02:59:52;5.88;;;5.32;;
20203;SDS011;10261;49.010;12.034;2023-04-24T03:00:54;5.60;;;4.68;;
20203;SDS011;10261;49.010;12.034;2023-04-24T03:01:57;7.20;;;5.30;;
20203;SDS011;10261;49.010;12.034;2023-04-24T03:02:59;7.22;;;5.07;;
20203;SDS011;10261;49.010;12.034;2023-04-24T03:04:02;5.63;;;5.07;;
20203;SDS011;10261;49.010;12.034;2023-04-24T03:05:05;6.25;;;5.65;;
20203;SDS011;10261;49.010;12.034;2023-04-24T03:06:08;6.53;;;5.10;;
20203;SDS011;10261;49.010;12.034;2023-04-24T03:07:10;5.28;;;4.75;;
20203;SDS011;10261;49.010;12.034;2023-04-24T03:08:13;5.68;;;4.93;;
20203;SDS011;10261;49.010;12.034;2023-04-24T03:09:15;9.75;;;5.57;;
20203;SDS011;10261;49.010;12.034;2023-04-24T03:10:18;7.25;;;5.35;;
20203;SDS011;10261;49.010;12.034;2023-04-24T03:11:20;6.57;;;5.35;;
20203;SDS011;10261;49.010;12.034;2023-04-24T03:12:25;6.35;;;5.75;;
20203;SDS011;10261;49.010;12.034;2023-04-24T03:13:27;5.18;;;4.47;;
20203;SDS011;10261;49.010;12.034;2023-04-24T03:14:30;5.22;;;4.80;;
20203;SDS011;10261;49.010;12.034;2023-04-24T03:15:32;6.50;;;4.47;;
20203;SDS011;10261;49.010;12.034;2023-04-24T03:16:35;7.55;;;4.68;;
20203;SDS011;10261;49.010;12.034;2023-04-24T03:17:38;4.60;;;4.20;;
20203;SDS011;10261;49.010;12.034;2023-04-24T03:18:41;4.95;;;4.53;;
20203;SDS011;10261;49.010;12.034;2023-04-24T03:19:43;4.72;;;4.30;;
20203;SDS011;10261;49.010;12.034;2023-04-24T03:20:46;5.72;;;5.13;;
20203;SDS011;10261;49.010;12.034;2023-04-24T03:21:48;5.10;;;4.70;;
20203;SDS011;10261;49.010;12.034;2023-04-24T03:22:51;5.15;;;4.65;;
20203;SDS011;10261;49.010;12.034;2023-04-24T03:23:53;4.72;;;4.32;;
20203;SDS011;10261;49.010;12.034;2023-04-24T03:24:57;5.30;;;4.78;;
20203;SDS011;10261;49.010;12.034;2023-04-24T03:25:58;6.20;;;4.50;;
20203;SDS011;10261;49.010;12.034;2023-04-24T03:27:02;5.47;;;4.97;;
20203;SDS011;10261;49.010;12.034;2023-04-24T03:28:06;7.80;;;4.20;;
20203;SDS011;10261;49.010;12.034;2023-04-24T03:29:08;4.35;;;3.95;;
20203;SDS011;10261;49.010;12.034;2023-04-24T03:30:11;4.80;;;3.90;;
20203;SDS011;10261;49.010;12.034;2023-04-24T03:31:13;5.38;;;3.45;;
20203;SDS011;10261;49.010;12.034;2023-04-24T03:32:16;4.18;;;3.63;;
20203;SDS011;10261;49.010;12.034;2023-04-24T03:33:18;4.70;;;4.13;;
20203;SDS011;10261;49.010;12.034;2023-04-24T03:34:21;3.75;;;3.45;;
20203;SDS011;10261;49.010;12.034;2023-04-24T03:35:23;5.00;;;4.50;;
20203;SDS011;10261;49.010;12.034;2023-04-24T03:36:26;7.85;;;3.60;;
20203;SDS011;10261;49.010;12.034;2023-04-24T03:37:30;4.28;;;3.72;;
20203;SDS011;10261;49.010;12.034;2023-04-24T03:38:32;4.40;;;4.00;;
20203;SDS011;10261;49.010;12.034;2023-04-24T03:39:35;4.03;;;3.63;;
20203;SDS011;10261;49.010;12.034;2023-04-24T03:40:37;3.60;;;3.30;;
20203;SDS011;10261;49.010;12.034;2023-04-24T03:41:40;3.47;;;3.20;;
20203;SDS011;10261;49.010;12.034;2023-04-24T03:42:41;3.40;;;3.10;;
20203;SDS011;10261;49.010;12.034;2023-04-24T03:43:46;3.80;;;3.50;;
20203;SDS011;10261;49.010;12.034;2023-04-24T03:44:48;3.95;;;3.40;;
20203;SDS011;10261;49.010;12.034;2023-04-24T03:45:51;4.05;;;3.55;;
20203;SDS011;10261;49.010;12.034;2023-04-24T03:46:53;3.80;;;2.97;;
20203;SDS011;10261;49.010;12.034;2023-04-24T03:47:56;4.18;;;3.72;;
20203;SDS011;10261;49.010;12.034;2023-04-24T03:48:58;4.35;;;3.60;;
20203;SDS011;10261;49.010;12.034;2023-04-24T03:50:01;4.55;;;3.30;;
20203;SDS011;10261;49.010;12.034;2023-04-24T03:51:04;3.40;;;3.00;;
20203;SDS011;10261;49.010;12.034;2023-04-24T03:52:07;3.67;;;3.33;;
20203;SDS011;10261;49.010;12.034;2023-04-24T03:53:09;3.47;;;3.17;;
20203;SDS011;10261;49.010;12.034;2023-04-24T03:54:12;3.75;;;3.45;;
20203;SDS011;10261;49.010;12.034;2023-04-24T03:55:14;4.15;;;2.95;;
20203;SDS011;10261;49.010;12.034;2023-04-24T03:56:17;5.47;;;4.13;;
20203;SDS011;10261;49.010;12.034;2023-04-24T03:57:19;4.10;;;2.97;;
20203;SDS011;10261;49.010;12.034;2023-04-24T03:58:23;3.30;;;3.00;;
20203;SDS011;10261;49.010;12.034;2023-04-24T03:59:26;4.60;;;3.15;;
20203;SDS011;10261;49.010;12.034;2023-04-24T04:00:29;4.57;;;3.05;;
20203;SDS011;10261;49.010;12.034;2023-04-24T04:01:34;2.58;;;2.38;;
20203;SDS011;10261;49.010;12.034;2023-04-24T04:02:38;3.85;;;3.45;;
20203;SDS011;10261;49.010;12.034;2023-04-24T04:03:40;3.10;;;2.80;;
20203;SDS011;10261;49.010;12.034;2023-04-24T04:04:44;3.50;;;3.20;;
20203;SDS011;10261;49.010;12.034;2023-04-24T04:05:47;3.38;;;3.05;;
20203;SDS011;10261;49.010;12.034;2023-04-24T04:06:50;4.25;;;3.40;;
20203;SDS011;10261;49.010;12.034;2023-04-24T04:07:52;3.60;;;3.30;;
20203;SDS011;10261;49.010;12.034;2023-04-24T04:08:55;3.42;;;3.15;;
20203;SDS011;10261;49.010;12.034;2023-04-24T04:09:57;3.88;;;3.55;;
20203;SDS011;10261;49.010;12.034;2023-04-24T04:11:00;3.60;;;3.30;;
20203;SDS011;10261;49.010;12.034;2023-04-24T04:12:04;3.25;;;3.05;;
20203;SDS011;10261;49.010;12.034;2023-04-24T04:13:07;3.60;;;3.30;;
20203;SDS011;10261;49.010;12.034;2023-04-24T04:14:10;3.10;;;2.85;;
20203;SDS011;10261;49.010;12.034;2023-04-24T04:15:14;3.47;;;3.17;;
20203;SDS011;10261;49.010;12.034;2023-04-24T04:16:16;6.95;;;3.65;;
20203;SDS011;10261;49.010;12.034;2023-04-24T04:17:20;5.38;;;4.07;;
20203;SDS011;10261;49.010;12.034;2023-04-24T04:18:22;4.30;;;3.95;;
20203;SDS011;10261;49.010;12.034;2023-04-24T04:19:24;4.28;;;3.60;;
20203;SDS011;10261;49.010;12.034;2023-04-24T04:20:26;5.07;;;3.25;;
20203;SDS011;10261;49.010;12.034;2023-04-24T04:21:29;3.10;;;2.80;;
20203;SDS011;10261;49.010;12.034;2023-04-24T04:22:32;3.40;;;3.05;;
20203;SDS011;10261;49.010;12.034;2023-04-24T04:23:35;3.83;;;3.53;;
20203;SDS011;10261;49.010;12.034;2023-04-24T04:24:37;3.08;;;2.88;;
20203;SDS011;10261;49.010;12.034;2023-04-24T04:25:41;4.68;;;3.03;;
20203;SDS011;10261;49.010;12.034;2023-04-24T04:26:43;3.55;;;3.25;;
20203;SDS011;10261;49.010;12.034;2023-04-24T04:27:48;3.65;;;3.28;;
20203;SDS011;10261;49.010;12.034;2023-04-24T04:28:52;4.18;;;3.78;;
20203;SDS011;10261;49.010;12.034;2023-04-24T04:29:55;4.00;;;3.70;;
20203;SDS011;10261;49.010;12.034;2023-04-24T04:30:59;3.97;;;3.28;;
20203;SDS011;10261;49.010;12.034;2023-04-24T04:32:02;3.40;;;3.08;;
20203;SDS011;10261;49.010;12.034;2023-04-24T04:33:04;5.00;;;3.55;;
20203;SDS011;10261;49.010;12.034;2023-04-24T04:34:07;3.50;;;3.20;;
20203;SDS011;10261;49.010;12.034;2023-04-24T04:35:09;2.80;;;2.60;;
20203;SDS011;10261;49.010;12.034;2023-04-24T04:36:12;3.88;;;3.45;;
20203;SDS011;10261;49.010;12.034;2023-04-24T04:37:14;4.18;;;3.40;;
20203;SDS011;10261;49.010;12.034;2023-04-24T04:38:18;4.40;;;3.65;;
20203;SDS011;10261;49.010;12.034;2023-04-24T04:39:20;3.25;;;2.95;;
20203;SDS011;10261;49.010;12.034;2023-04-24T04:40:23;3.15;;;2.85;;
20203;SDS011;10261;49.010;12.034;2023-04-24T04:41:26;3.17;;;2.88;;
20203;SDS011;10261;49.010;12.034;2023-04-24T04:42:29;3.60;;;3.30;;
20203;SDS011;10261;49.010;12.034;2023-04-24T04:43:31;3.70;;;3.20;;
20203;SDS011;10261;49.010;12.034;2023-04-24T04:44:35;3.72;;;3.42;;
20203;SDS011;10261;49.010;12.034;2023-04-24T04:45:37;2.65;;;2.45;;
20203;SDS011;10261;49.010;12.034;2023-04-24T04:46:42;3.28;;;3.03;;
20203;SDS011;10261;49.010;12.034;2023-04-24T04:47:49;3.33;;;3.05;;
20203;SDS011;10261;49.010;12.034;2023-04-24T04:48:52;4.53;;;2.70;;
20203;SDS011;10261;49.010;12.034;2023-04-24T04:49:54;4.72;;;2.95;;
20203;SDS011;10261;49.010;12.034;2023-04-24T04:50:57;2.40;;;2.17;;
20203;SDS011;10261;49.010;12.034;2023-04-24T04:51:59;2.47;;;2.28;;
20203;SDS011;10261;49.010;12.034;2023-04-24T04:53:05;2.88;;;2.28;;
20203;SDS011;10261;49.010;12.034;2023-04-24T04:54:08;6.05;;;2.30;;
20203;SDS011;10261;49.010;12.034;2023-04-24T04:55:11;2.78;;;2.40;;
20203;SDS011;10261;49.010;12.034;2023-04-24T04:56:14;2.75;;;2.55;;
20203;SDS011;10261;49.010;12.034;2023-04-24T04:57:17;2.72;;;2.53;;
20203;SDS011;10261;49.010;12.034;2023-04-24T04:58:19;2.75;;;2.55;;
20203;SDS011;10261;49.010;12.034;2023-04-24T04:59:22;3.47;;;2.67;;
20203;SDS011;10261;49.010;12.034;2023-04-24T05:00:24;2.75;;;2.28;;
20203;SDS011;10261;49.010;12.034;2023-04-24T05:01:27;2.95;;;2.28;;
20203;SDS011;10261;49.010;12.034;2023-04-24T05:02:30;3.85;;;2.30;;
20203;SDS011;10261;49.010;12.034;2023-04-24T05:03:33;2.40;;;2.20;;
20203;SDS011;10261;49.010;12.034;2023-04-24T05:04:36;4.40;;;3.97;;
20203;SDS011;10261;49.010;12.034;2023-04-24T05:05:39;3.33;;;2.00;;
20203;SDS011;10261;49.010;12.034;2023-04-24T05:06:41;2.40;;;2.20;;
20203;SDS011;10261;49.010;12.034;2023-04-24T05:07:44;3.10;;;2.45;;
20203;SDS011;10261;49.010;12.034;2023-04-24T05:08:46;2.95;;;2.00;;
20203;SDS011;10261;49.010;12.034;2023-04-24T05:09:49;2.80;;;2.50;;
20203;SDS011;10261;49.010;12.034;2023-04-24T05:10:53;3.15;;;2.25;;
20203;SDS011;10261;49.010;12.034;2023-04-24T05:11:56;3.03;;;1.58;;
20203;SDS011;10261;49.010;12.034;2023-04-24T05:12:58;2.28;;;2.08;;
20203;SDS011;10261;49.010;12.034;2023-04-24T05:14:02;2.33;;;2.13;;
20203;SDS011;10261;49.010;12.034;2023-04-24T05:15:04;2.60;;;2.00;;
20203;SDS011;10261;49.010;12.034;2023-04-24T05:16:08;3.22;;;2.22;;
20203;SDS011;10261;49.010;12.034;2023-04-24T05:17:10;2.58;;;2.20;;
20203;SDS011;10261;49.010;12.034;2023-04-24T05:18:14;3.38;;;2.47;;
20203;SDS011;10261;49.010;12.034;2023-04-24T05:19:16;2.58;;;2.38;;
20203;SDS011;10261;49.010;12.034;2023-04-24T05:20:19;2.63;;;2.20;;
20203;SDS011;10261;49.010;12.034;2023-04-24T05:21:22;4.25;;;2.05;;
20203;SDS011;10261;49.010;12.034;2023-04-24T05:22:25;4.20;;;1.80;;
20203;SDS011;10261;49.010;12.034;2023-04-24T05:23:27;1.92;;;1.80;;
20203;SDS011;10261;49.010;12.034;2023-04-24T05:24:30;3.25;;;2.10;;
20203;SDS011;10261;49.010;12.034;2023-04-24T05:25:32;1.67;;;1.55;;
20203;SDS011;10261;49.010;12.034;2023-04-24T05:26:36;1.70;;;1.60;;
20203;SDS011;10261;49.010;12.034;2023-04-24T05:27:39;2.95;;;2.00;;
20203;SDS011;10261;49.010;12.034;2023-04-24T05:28:41;2.22;;;2.03;;
20203;SDS011;10261;49.010;12.034;2023-04-24T05:29:44;2.63;;;1.63;;
20203;SDS011;10261;49.010;12.034;2023-04-24T05:30:46;2.67;;;1.95;;
20203;SDS011;10261;49.010;12.034;2023-04-24T05:31:49;1.88;;;1.60;;
20203;SDS011;10261;49.010;12.034;2023-04-24T05:32:51;3.95;;;1.90;;
20203;SDS011;10261;49.010;12.034;2023-04-24T05:33:56;1.48;;;1.38;;
20203;SDS011;10261;49.010;12.034;2023-04-24T05:34:58;2.97;;;1.88;;
20203;SDS011;10261;49.010;12.034;2023-04-24T05:36:01;2.80;;;1.40;;
20203;SDS011;10261;49.010;12.034;2023-04-24T05:37:03;4.35;;;1.42;;
20203;SDS011;10261;49.010;12.034;2023-04-24T05:38:09;3.10;;;1.80;;
20203;SDS011;10261;49.010;12.034;2023-04-24T05:39:11;2.33;;;1.90;;
20203;SDS011;10261;49.010;12.034;2023-04-24T05:40:14;1.65;;;1.55;;
20203;SDS011;10261;49.010;12.034;2023-04-24T05:41:16;1.80;;;1.50;;
20203;SDS011;10261;49.010;12.034;2023-04-24T05:42:19;1.88;;;1.73;;
20203;SDS011;10261;49.010;12.034;2023-04-24T05:43:21;1.75;;;1.60;;
20203;SDS011;10261;49.010;12.034;2023-04-24T05:44:24;4.55;;;1.40;;
20203;SDS011;10261;49.010;12.034;2023-04-24T05:45:26;3.25;;;1.60;;
20203;SDS011;10261;49.010;12.034;2023-04-24T05:46:29;2.50;;;1.60;;
20203;SDS011;10261;49.010;12.034;2023-04-24T05:47:31;1.75;;;1.35;;
20203;SDS011;10261;49.010;12.034;2023-04-24T05:48:34;2.58;;;1.92;;
20203;SDS011;10261;49.010;12.034;2023-04-24T05:49:37;3.95;;;2.67;;
20203;SDS011;10261;49.010;12.034;2023-04-24T05:50:40;1.65;;;1.33;;
20203;SDS011;10261;49.010;12.034;2023-04-24T05:51:42;4.32;;;1.55;;
20203;SDS011;10261;49.010;12.034;2023-04-24T05:52:45;2.15;;;1.42;;
20203;SDS011;10261;49.010;12.034;2023-04-24T05:53:47;2.90;;;1.50;;
20203;SDS011;10261;49.010;12.034;2023-04-24T05:54:50;1.70;;;1.35;;
20203;SDS011;10261;49.010;12.034;2023-04-24T05:55:52;2.17;;;1.48;;
20203;SDS011;10261;49.010;12.034;2023-04-24T05:56:55;2.45;;;1.35;;
20203;SDS011;10261;49.010;12.034;2023-04-24T05:57:57;6.80;;;1.77;;
20203;SDS011;10261;49.010;12.034;2023-04-24T05:59:00;2.20;;;1.50;;
20203;SDS011;10261;49.010;12.034;2023-04-24T06:00:02;2.13;;;1.40;;
20203;SDS011;10261;49.010;12.034;2023-04-24T06:01:07;4.00;;;2.80;;
20203;SDS011;10261;49.010;12.034;2023-04-24T06:02:09;2.40;;;2.20;;
20203;SDS011;10261;49.010;12.034;2023-04-24T06:03:12;4.50;;;2.05;;
20203;SDS011;10261;49.010;12.034;2023-04-24T06:04:15;2.28;;;2.08;;
20203;SDS011;10261;49.010;12.034;2023-04-24T06:05:19;5.00;;;1.77;;
20203;SDS011;10261;49.010;12.034;2023-04-24T06:06:23;1.95;;;1.58;;
20203;SDS011;10261;49.010;12.034;2023-04-24T06:07:25;4.43;;;1.65;;
20203;SDS011;10261;49.010;12.034;2023-04-24T06:08:28;2.00;;;1.80;;
20203;SDS011;10261;49.010;12.034;2023-04-24T06:09:30;2.53;;;1.98;;
20203;SDS011;10261;49.010;12.034;2023-04-24T06:10:33;2.05;;;1.85;;
20203;SDS011;10261;49.010;12.034;2023-04-24T06:11:35;3.17;;;1.85;;
20203;SDS011;10261;49.010;12.034;2023-04-24T06:12:38;3.47;;;2.60;;